createdAt,value
2018-12-30T00:01:23.514Z,101812.28
2018-12-30T00:04:01.108Z,101820.55
2018-12-30T00:06:35.300Z,101830.98
2018-12-30T00:09:10.504Z,101835.77
2018-12-30T00:11:43.862Z,101838.38
2018-12-30T00:14:18.912Z,101827.14
2018-12-30T00:16:52.897Z,101813.73
2018-12-30T00:19:25.081Z,101795.56
2018-12-30T00:21:56.998Z,101799.86
2018-12-30T00:24:28.967Z,101778.64
2018-12-30T00:27:01.151Z,101779.06
2018-12-30T00:29:37.527Z,101785.60
2018-12-30T00:32:11.870Z,101770.47
2018-12-30T00:34:44.556Z,101763.47
2018-12-30T00:37:18.095Z,101773.94
2018-12-30T00:39:49.982Z,101775.66
2018-12-30T00:42:22.008Z,101789.94
2018-12-30T00:44:55.466Z,101784.30
2018-12-30T00:47:30.752Z,101795.11
2018-12-30T00:50:05.181Z,101777.34
2018-12-30T00:52:39.024Z,101795.52
2018-12-30T00:55:15.712Z,101799.44
2018-12-30T00:57:48.898Z,101794.66
2018-12-30T01:00:22.038Z,101790.34
2018-12-30T01:02:56.984Z,101795.11
2018-12-30T01:05:37.964Z,101791.24
2018-12-30T01:08:15.902Z,101797.30
2018-12-30T01:10:48.257Z,101806.41
2018-12-30T01:13:24.669Z,101802.54
2018-12-30T01:15:58.257Z,101806.00
2018-12-30T01:18:29.965Z,101806.89
2018-12-30T01:21:03.724Z,101818.18
2018-12-30T01:23:36.395Z,101801.31
2018-12-30T01:26:10.001Z,101807.38
2018-12-30T01:28:42.487Z,101804.78
2018-12-30T01:31:15.791Z,101809.98
2018-12-30T01:33:47.698Z,101809.54
2018-12-30T01:36:23.697Z,101804.38
2018-12-30T01:38:56.527Z,101811.31
2018-12-30T01:41:28.902Z,101810.86
2018-12-30T01:44:02.112Z,101819.13
2018-12-30T01:46:45.627Z,101815.23
2018-12-30T01:49:23.442Z,101812.63
2018-12-30T01:51:58.156Z,101816.97
2018-12-30T01:54:35.253Z,101826.08
2018-12-30T01:57:18.172Z,101833.89
2018-12-30T01:59:53.379Z,101834.78
2018-12-30T02:02:25.603Z,101836.12
2018-12-30T02:05:03.889Z,101834.41
2018-12-30T02:07:39.636Z,101843.55
2018-12-30T02:10:11.913Z,101846.63
2018-12-30T02:12:43.921Z,101851.83
2018-12-30T02:15:16.165Z,101853.59
2018-12-30T02:17:48.672Z,101845.79
2018-12-30T02:20:20.604Z,101853.59
2018-12-30T02:22:53.445Z,101866.58
2018-12-30T02:25:25.723Z,101863.55
2018-12-30T02:27:57.406Z,101860.55
2018-12-30T02:30:29.235Z,101857.98
2018-12-30T02:33:01.567Z,101871.41
2018-12-30T02:35:33.354Z,101877.50
2018-12-30T02:38:05.435Z,101874.48
2018-12-30T02:40:37.702Z,101877.14
2018-12-30T02:43:09.462Z,101873.67
2018-12-30T02:45:41.143Z,101873.72
2018-12-30T02:48:12.995Z,101874.14
2018-12-30T02:50:45.712Z,101883.69
2018-12-30T02:53:18.381Z,101876.31
2018-12-30T02:55:50.052Z,101883.67
2018-12-30T02:58:21.693Z,101891.94
2018-12-30T03:00:53.857Z,101894.09
2018-12-30T03:03:25.468Z,101894.09
2018-12-30T03:05:57.596Z,101891.06
2018-12-30T03:08:29.300Z,101891.94
2018-12-30T03:11:01.205Z,101900.57
2018-12-30T03:13:32.779Z,101914.87
2018-12-30T03:16:04.422Z,101901.45
2018-12-30T03:18:36.042Z,101894.11
2018-12-30T03:21:08.758Z,101890.66
2018-12-30T03:23:40.397Z,101885.90
2018-12-30T03:26:12.168Z,101889.80
2018-12-30T03:28:43.818Z,101896.72
2018-12-30T03:31:16.123Z,101884.59
2018-12-30T03:33:47.845Z,101882.02
2018-12-30T03:36:20.165Z,101885.52
2018-12-30T03:38:51.866Z,101887.23
2018-12-30T03:41:23.560Z,101890.71
2018-12-30T03:43:55.230Z,101886.34
2018-12-30T03:46:26.871Z,101885.50
2018-12-30T03:48:59.717Z,101886.84
2018-12-30T03:51:32.007Z,101894.64
2018-12-30T03:54:04.373Z,101890.77
2018-12-30T03:56:36.142Z,101880.81
2018-12-30T03:59:07.812Z,101881.68
2018-12-30T04:01:39.405Z,101894.25
2018-12-30T04:04:11.066Z,101890.81
2018-12-30T04:06:42.778Z,101894.70
2018-12-30T04:09:14.800Z,101895.59
2018-12-30T04:11:46.505Z,101897.77
2018-12-30T04:14:18.213Z,101894.76
2018-12-30T04:16:49.894Z,101898.23
2018-12-30T04:19:21.510Z,101910.81
2018-12-30T04:21:53.926Z,101907.77
2018-12-30T04:24:26.299Z,101904.33
2018-12-30T04:26:57.948Z,101905.64
2018-12-30T04:29:29.587Z,101906.06
2018-12-30T04:32:01.424Z,101920.39
2018-12-30T04:34:33.094Z,101916.91
2018-12-30T04:37:04.716Z,101917.34
2018-12-30T04:39:36.993Z,101916.06
2018-12-30T04:42:08.632Z,101908.69
2018-12-30T04:44:40.190Z,101925.19
2018-12-30T04:47:11.805Z,101920.41
2018-12-30T04:49:43.411Z,101916.52
2018-12-30T04:52:15.397Z,101921.74
2018-12-30T04:54:47.669Z,101930.86
2018-12-30T04:57:19.979Z,101918.73
2018-12-30T04:59:51.897Z,101916.11
2018-12-30T05:02:23.538Z,101922.62
2018-12-30T05:04:55.384Z,101928.70
2018-12-30T05:07:27.198Z,101935.64
2018-12-30T05:09:58.812Z,101934.77
2018-12-30T05:12:31.075Z,101932.62
2018-12-30T05:15:02.985Z,101929.57
2018-12-30T05:17:35.349Z,101923.92
2018-12-30T05:20:07.195Z,101936.50
2018-12-30T05:22:38.818Z,101938.67
2018-12-30T05:25:10.492Z,101949.53
2018-12-30T05:27:42.774Z,101952.16
2018-12-30T05:30:14.793Z,101963.84
2018-12-30T05:32:46.410Z,101953.88
2018-12-30T05:35:18.080Z,101952.16
2018-12-30T05:37:49.725Z,101958.64
2018-12-30T05:40:22.514Z,101965.16
2018-12-30T05:42:54.873Z,101965.60
2018-12-30T05:45:26.967Z,101970.40
2018-12-30T05:47:59.007Z,101976.46
2018-12-30T05:50:30.634Z,101983.86
2018-12-30T05:53:02.247Z,101988.65
2018-12-30T05:55:33.883Z,101985.66
2018-12-30T05:58:06.282Z,101992.58
2018-12-30T06:00:37.938Z,102010.82
2018-12-30T06:03:09.803Z,102014.32
2018-12-30T06:05:42.552Z,102009.97
2018-12-30T06:08:14.153Z,102008.23
2018-12-30T06:10:45.899Z,102013.46
2018-12-30T06:13:17.754Z,102030.39
2018-12-30T06:15:49.476Z,102035.19
2018-12-30T06:18:21.079Z,102036.47
2018-12-30T06:20:53.027Z,102040.83
2018-12-30T06:23:25.196Z,102038.67
2018-12-30T06:25:56.843Z,102041.70
2018-12-30T06:28:28.451Z,102046.08
2018-12-30T06:31:00.308Z,102043.05
2018-12-30T06:33:32.681Z,102051.30
2018-12-30T06:36:04.380Z,102056.50
2018-12-30T06:38:35.989Z,102050.84
2018-12-30T06:41:07.615Z,102056.05
2018-12-30T06:43:39.395Z,102058.23
2018-12-30T06:46:11.145Z,102058.66
2018-12-30T06:48:42.779Z,102072.98
2018-12-30T06:51:14.644Z,102073.00
2018-12-30T06:53:46.301Z,102089.91
2018-12-30T06:56:18.097Z,102093.40
2018-12-30T06:58:50.064Z,102102.94
2018-12-30T07:01:22.218Z,102105.53
2018-12-30T07:03:54.134Z,102109.44
2018-12-30T07:06:26.629Z,102113.81
2018-12-30T07:08:58.223Z,102121.22
2018-12-30T07:11:31.001Z,102125.54
2018-12-30T07:14:02.622Z,102135.55
2018-12-30T07:16:34.674Z,102142.56
2018-12-30T07:19:06.345Z,102140.83
2018-12-30T07:21:38.001Z,102147.34
2018-12-30T07:24:09.830Z,102147.77
2018-12-30T07:26:41.802Z,102151.22
2018-12-30T07:29:13.431Z,102146.89
2018-12-30T07:31:45.297Z,102148.19
2018-12-30T07:34:16.967Z,102155.59
2018-12-30T07:36:48.696Z,102142.99
2018-12-30T07:39:21.565Z,102146.90
2018-12-30T07:41:53.227Z,102152.98
2018-12-30T07:44:24.882Z,102157.73
2018-12-30T07:46:56.541Z,102157.78
2018-12-30T07:49:28.461Z,102160.41
2018-12-30T07:52:00.340Z,102163.00
2018-12-30T07:54:32.043Z,102152.57
2018-12-30T07:57:03.708Z,102151.29
2018-12-30T07:59:35.973Z,102137.81
2018-12-30T08:02:08.125Z,102125.69
2018-12-30T08:04:40.040Z,102131.34
2018-12-30T08:07:12.444Z,102134.39
2018-12-30T08:09:45.574Z,102137.02
2018-12-30T08:12:18.817Z,102148.31
2018-12-30T08:14:50.810Z,102138.31
2018-12-30T08:17:22.582Z,102136.61
2018-12-30T08:19:54.362Z,102131.40
2018-12-30T08:22:26.166Z,102142.67
2018-12-30T08:24:57.820Z,102159.63
2018-12-30T08:27:29.650Z,102170.91
2018-12-30T08:30:01.635Z,102173.96
2018-12-30T08:32:33.668Z,102176.99
2018-12-30T08:35:05.408Z,102186.11
2018-12-30T08:37:37.147Z,102202.17
2018-12-30T08:40:09.315Z,102204.80
2018-12-30T08:42:41.131Z,102202.61
2018-12-30T08:45:12.921Z,102206.10
2018-12-30T08:47:45.729Z,102209.58
2018-12-30T08:50:18.098Z,102207.39
2018-12-30T08:52:49.843Z,102205.66
2018-12-30T08:55:25.971Z,102215.67
2018-12-30T08:57:58.523Z,102219.18
2018-12-30T09:00:30.379Z,102219.62
2018-12-30T09:03:02.201Z,102214.88
2018-12-30T09:05:33.869Z,102209.65
2018-12-30T09:08:05.831Z,102219.69
2018-12-30T09:10:47.995Z,102224.03
2018-12-30T09:13:24.788Z,102218.41
2018-12-30T09:16:00.423Z,102219.27
2018-12-30T09:18:32.128Z,102217.98
2018-12-30T09:21:12.325Z,102213.22
2018-12-30T09:24:03.736Z,102214.55
2018-12-30T09:26:42.869Z,102217.56
2018-12-30T09:29:20.852Z,102218.00
2018-12-30T09:31:58.556Z,102229.30
2018-12-30T09:34:45.292Z,102243.64
2018-12-30T09:37:18.763Z,102242.77
2018-12-30T09:39:59.801Z,102245.83
2018-12-30T09:42:34.563Z,102246.27
2018-12-30T09:45:06.910Z,102246.30
2018-12-30T09:47:39.811Z,102246.75
2018-12-30T09:50:11.779Z,102254.17
2018-12-30T09:52:43.862Z,102250.27
2018-12-30T09:55:16.073Z,102254.63
2018-12-30T09:57:48.263Z,102253.80
2018-12-30T10:00:20.471Z,102252.07
2018-12-30T10:02:52.337Z,102248.20
2018-12-30T10:05:25.911Z,102255.16
2018-12-30T10:07:57.994Z,102252.56
2018-12-30T10:10:30.880Z,102245.20
2018-12-30T10:13:03.259Z,102255.20
2018-12-30T10:15:35.281Z,102251.76
2018-12-30T10:18:06.964Z,102251.33
2018-12-30T10:20:38.644Z,102247.00
2018-12-30T10:23:10.443Z,102247.86
2018-12-30T10:25:42.473Z,102248.31
2018-12-30T10:28:14.620Z,102247.92
2018-12-30T10:30:47.283Z,102237.05
2018-12-30T10:33:19.779Z,102240.96
2018-12-30T10:35:53.085Z,102233.58
2018-12-30T10:38:25.458Z,102225.34
2018-12-30T10:40:57.370Z,102228.39
2018-12-30T10:43:30.197Z,102222.72
2018-12-30T10:46:01.878Z,102224.05
2018-12-30T10:48:33.595Z,102234.48
2018-12-30T10:51:05.337Z,102243.20
2018-12-30T10:53:38.153Z,102237.11
2018-12-30T10:56:09.914Z,102236.67
2018-12-30T10:58:52.354Z,102244.95
2018-12-30T11:01:24.209Z,102245.39
2018-12-30T11:03:56.067Z,102252.35
2018-12-30T11:06:28.068Z,102252.36
2018-12-30T11:09:00.135Z,102252.79
2018-12-30T11:11:31.990Z,102247.55
2018-12-30T11:14:03.894Z,102241.05
2018-12-30T11:16:35.656Z,102247.14
2018-12-30T11:19:07.712Z,102248.86
2018-12-30T11:21:39.424Z,102253.21
2018-12-30T11:24:11.182Z,102240.61
2018-12-30T11:26:44.319Z,102227.13
2018-12-30T11:29:16.519Z,102227.56
2018-12-30T11:31:49.495Z,102223.66
2018-12-30T11:34:21.470Z,102222.77
2018-12-30T11:36:53.222Z,102224.50
2018-12-30T11:39:25.010Z,102227.54
2018-12-30T11:41:58.467Z,102237.99
2018-12-30T11:44:30.559Z,102244.52
2018-12-30T11:47:02.373Z,102243.22
2018-12-30T11:49:34.267Z,102252.78
2018-12-30T11:52:05.994Z,102251.03
2018-12-30T11:54:37.747Z,102251.91
2018-12-30T11:57:09.386Z,102258.42
2018-12-30T11:59:41.693Z,102257.14
2018-12-30T12:02:13.484Z,102262.82
2018-12-30T12:04:46.735Z,102258.45
2018-12-30T12:07:19.349Z,102258.91
2018-12-30T12:09:51.142Z,102250.20
2018-12-30T12:12:22.956Z,102238.89
2018-12-30T12:14:54.888Z,102247.61
2018-12-30T12:17:27.559Z,102237.59
2018-12-30T12:19:59.403Z,102228.45
2018-12-30T12:22:31.554Z,102231.48
2018-12-30T12:25:03.556Z,102224.95
2018-12-30T12:27:37.735Z,102226.73
2018-12-30T12:30:13.419Z,102212.78
2018-12-30T12:32:52.145Z,102203.66
2018-12-30T12:35:24.439Z,102208.86
2018-12-30T12:37:57.042Z,102200.59
2018-12-30T12:40:29.127Z,102205.84
2018-12-30T12:43:00.881Z,102199.30
2018-12-30T12:45:34.248Z,102213.25
2018-12-30T12:48:06.264Z,102210.65
2018-12-30T12:50:38.426Z,102200.64
2018-12-30T12:53:10.355Z,102194.55
2018-12-30T12:55:42.928Z,102192.83
2018-12-30T12:58:18.150Z,102188.90
2018-12-30T13:00:50.405Z,102194.11
2018-12-30T13:03:22.203Z,102193.25
2018-12-30T13:05:54.299Z,102195.43
2018-12-30T13:08:26.138Z,102196.30
2018-12-30T13:10:58.816Z,102195.43
2018-12-30T13:13:32.577Z,102199.78
2018-12-30T13:16:05.052Z,102207.61
2018-12-30T13:18:37.048Z,102194.13
2018-12-30T13:21:10.325Z,102198.91
2018-12-30T13:23:43.761Z,102197.16
2018-12-30T13:26:15.446Z,102194.09
2018-12-30T13:28:48.398Z,102196.72
2018-12-30T13:31:20.095Z,102187.59
2018-12-30T13:33:52.679Z,102190.63
2018-12-30T13:36:25.843Z,102211.09
2018-12-30T13:38:57.975Z,102214.14
2018-12-30T13:41:30.538Z,102204.11
2018-12-30T13:44:02.538Z,102194.11
2018-12-30T13:46:34.804Z,102200.20
2018-12-30T13:49:07.769Z,102200.20
2018-12-30T13:51:39.790Z,102204.56
2018-12-30T13:54:11.504Z,102195.83
2018-12-30T13:56:43.247Z,102194.09
2018-12-30T13:59:15.077Z,102206.30
2018-12-30T14:01:46.865Z,102211.11
2018-12-30T14:04:18.651Z,102207.17
2018-12-30T14:06:51.293Z,102206.75
2018-12-30T14:09:23.191Z,102218.07
2018-12-30T14:11:56.128Z,102213.28
2018-12-30T14:14:28.103Z,102218.94
2018-12-30T14:16:59.833Z,102213.70
2018-12-30T14:19:31.524Z,102205.42
2018-12-30T14:22:04.173Z,102194.12
2018-12-30T14:24:36.095Z,102197.61
2018-12-30T14:27:09.794Z,102205.44
2018-12-30T14:29:41.813Z,102199.79
2018-12-30T14:32:15.558Z,102207.18
2018-12-30T14:34:47.350Z,102218.05
2018-12-30T14:37:19.851Z,102223.27
2018-12-30T14:39:51.638Z,102228.48
2018-12-30T14:42:23.429Z,102218.91
2018-12-30T14:44:55.153Z,102236.34
2018-12-30T14:47:27.114Z,102240.25
2018-12-30T14:49:58.801Z,102237.64
2018-12-30T14:52:32.961Z,102249.83
2018-12-30T14:55:04.830Z,102249.39
2018-12-30T14:57:36.594Z,102251.97
2018-12-30T15:00:09.807Z,102258.52
2018-12-30T15:02:41.829Z,102270.25
2018-12-30T15:05:13.849Z,102274.16
2018-12-30T15:07:45.092Z,102272.41
2018-12-30T15:10:14.360Z,102272.88
2018-12-30T15:12:46.098Z,102268.08
2018-12-30T15:15:17.893Z,102265.91
2018-12-30T15:17:50.831Z,102268.95
2018-12-30T15:20:22.507Z,102278.09
2018-12-30T15:22:54.564Z,102291.14
2018-12-30T15:25:27.991Z,102279.84
2018-12-30T15:28:00.279Z,102278.53
2018-12-30T15:30:32.024Z,102279.39
2018-12-30T15:33:03.723Z,102279.83
2018-12-30T15:35:35.701Z,102266.34
2018-12-30T15:38:07.812Z,102266.34
2018-12-30T15:40:42.010Z,102264.60
2018-12-30T15:43:14.277Z,102259.39
2018-12-30T15:45:46.019Z,102261.11
2018-12-30T15:48:17.802Z,102255.46
2018-12-30T15:50:50.015Z,102268.53
2018-12-30T15:53:21.776Z,102286.81
2018-12-30T15:55:54.019Z,102304.22
2018-12-30T15:58:28.345Z,102304.63
2018-12-30T16:01:00.452Z,102304.63
2018-12-30T16:03:32.367Z,102298.95
2018-12-30T16:06:04.284Z,102295.47
2018-12-30T16:08:35.991Z,102284.16
2018-12-30T16:11:07.983Z,102278.51
2018-12-30T16:13:41.006Z,102285.91
2018-12-30T16:16:12.712Z,102283.73
2018-12-30T16:18:44.480Z,102275.88
2018-12-30T16:21:16.510Z,102275.45
2018-12-30T16:23:48.809Z,102270.23
2018-12-30T16:26:20.606Z,102264.15
2018-12-30T16:28:52.251Z,102260.66
2018-12-30T16:31:28.242Z,102255.44
2018-12-30T16:33:59.303Z,102242.38
2018-12-30T16:36:31.408Z,102241.94
2018-12-30T16:39:03.779Z,102237.59
2018-12-30T16:41:35.562Z,102249.34
2018-12-30T16:44:07.292Z,102245.42
2018-12-30T16:46:39.896Z,102240.19
2018-12-30T16:49:11.755Z,102238.44
2018-12-30T16:51:43.973Z,102231.48
2018-12-30T16:54:15.867Z,102232.77
2018-12-30T16:56:47.818Z,102239.31
2018-12-30T16:59:19.885Z,102246.25
2018-12-30T17:01:52.715Z,102228.43
2018-12-30T17:04:24.619Z,102230.58
2018-12-30T17:06:57.219Z,102224.05
2018-12-30T17:09:29.454Z,102233.63
2018-12-30T17:12:01.479Z,102225.79
2018-12-30T17:14:35.058Z,102234.08
2018-12-30T17:17:07.469Z,102231.91
2018-12-30T17:19:39.240Z,102237.55
2018-12-30T17:22:11.071Z,102226.68
2018-12-30T17:24:43.276Z,102219.70
2018-12-30T17:27:15.202Z,102223.19
2018-12-30T17:29:47.039Z,102224.06
2018-12-30T17:32:19.022Z,102230.13
2018-12-30T17:34:51.207Z,102242.31
2018-12-30T17:37:23.695Z,102247.12
2018-12-30T17:39:55.602Z,102242.77
2018-12-30T17:42:27.413Z,102247.53
2018-12-30T17:44:59.279Z,102243.62
2018-12-30T17:47:31.142Z,102240.13
2018-12-30T17:50:03.660Z,102246.59
2018-12-30T17:52:37.164Z,102243.98
2018-12-30T17:55:10.409Z,102242.25
2018-12-30T17:57:42.178Z,102242.23
2018-12-30T18:00:14.081Z,102241.79
2018-12-30T18:02:46.132Z,102245.72
2018-12-30T18:05:18.822Z,102251.38
2018-12-30T18:07:50.881Z,102243.09
2018-12-30T18:10:24.603Z,102236.59
2018-12-30T18:12:59.162Z,102240.50
2018-12-30T18:15:31.062Z,102240.52
2018-12-30T18:18:03.038Z,102237.92
2018-12-30T18:20:36.680Z,102240.96
2018-12-30T18:23:08.406Z,102246.19
2018-12-30T18:25:40.243Z,102239.20
2018-12-30T18:28:11.981Z,102238.77
2018-12-30T18:30:43.905Z,102239.20
2018-12-30T18:33:17.475Z,102234.41
2018-12-30T18:35:50.060Z,102234.41
2018-12-30T18:38:21.768Z,102238.32
2018-12-30T18:40:53.659Z,102241.80
2018-12-30T18:43:26.734Z,102252.67
2018-12-30T18:45:58.605Z,102259.64
2018-12-30T18:48:30.690Z,102242.70
2018-12-30T18:51:02.475Z,102243.57
2018-12-30T18:53:34.813Z,102245.34
2018-12-30T18:56:07.197Z,102249.69
2018-12-30T18:58:39.490Z,102249.69
2018-12-30T19:01:11.509Z,102250.55
2018-12-30T19:03:43.588Z,102250.13
2018-12-30T19:06:15.778Z,102244.91
2018-12-30T19:08:48.731Z,102241.88
2018-12-30T19:11:21.054Z,102239.69
2018-12-30T19:13:54.448Z,102242.31
2018-12-30T19:16:27.476Z,102235.34
2018-12-30T19:18:59.356Z,102229.27
2018-12-30T19:21:35.823Z,102224.50
2018-12-30T19:24:08.573Z,102228.84
2018-12-30T19:26:40.473Z,102237.11
2018-12-30T19:29:12.264Z,102227.55
2018-12-30T19:31:43.973Z,102229.73
2018-12-30T19:34:15.952Z,102234.11
2018-12-30T19:36:47.743Z,102236.71
2018-12-30T19:39:22.361Z,102241.08
2018-12-30T19:41:55.667Z,102244.98
2018-12-30T19:44:27.664Z,102247.63
2018-12-30T19:47:01.015Z,102246.76
2018-12-30T19:49:33.455Z,102248.06
2018-12-30T19:52:06.932Z,102251.52
2018-12-30T19:54:39.741Z,102245.86
2018-12-30T19:57:12.118Z,102239.78
2018-12-30T19:59:44.077Z,102243.27
2018-12-30T20:02:15.902Z,102239.80
2018-12-30T20:04:47.777Z,102240.66
2018-12-30T20:07:21.174Z,102239.79
2018-12-30T20:09:53.239Z,102240.23
2018-12-30T20:12:25.805Z,102249.38
2018-12-30T20:14:57.836Z,102235.02
2018-12-30T20:17:29.615Z,102249.39
2018-12-30T20:20:02.306Z,102243.73
2018-12-30T20:22:37.117Z,102238.94
2018-12-30T20:25:09.127Z,102237.63
2018-12-30T20:27:41.527Z,102236.33
2018-12-30T20:30:13.418Z,102227.61
2018-12-30T20:32:54.237Z,102230.66
2018-12-30T20:35:31.062Z,102227.63
2018-12-30T20:38:03.366Z,102228.48
2018-12-30T20:40:35.550Z,102226.75
2018-12-30T20:43:07.921Z,102223.25
2018-12-30T20:45:42.666Z,102214.11
2018-12-30T20:48:14.654Z,102213.70
2018-12-30T20:50:51.148Z,102217.17
2018-12-30T20:53:26.741Z,102209.77
2018-12-30T20:55:58.587Z,102208.91
2018-12-30T20:58:32.010Z,102216.30
2018-12-30T21:01:06.399Z,102214.13
2018-12-30T21:03:41.176Z,102220.64
2018-12-30T21:06:21.264Z,102212.81
2018-12-30T21:08:57.129Z,102216.27
2018-12-30T21:11:29.397Z,102209.33
2018-12-30T21:14:02.295Z,102208.89
2018-12-30T21:16:34.094Z,102203.23
2018-12-30T21:19:06.273Z,102201.93
2018-12-30T21:21:38.858Z,102199.30
2018-12-30T21:24:20.959Z,102191.93
2018-12-30T21:26:52.682Z,102193.23
2018-12-30T21:29:25.143Z,102196.69
2018-12-30T21:31:57.399Z,102191.93
2018-12-30T21:34:29.412Z,102189.31
2018-12-30T21:37:01.803Z,102197.56
2018-12-30T21:39:33.887Z,102192.77
2018-12-30T21:42:07.117Z,102186.25
2018-12-30T21:44:39.799Z,102198.88
2018-12-30T21:47:11.665Z,102187.52
2018-12-30T21:49:43.725Z,102184.50
2018-12-30T21:52:15.693Z,102187.11
2018-12-30T21:54:47.627Z,102190.16
2018-12-30T21:57:19.560Z,102184.48
2018-12-30T21:59:55.407Z,102185.34
2018-12-30T22:02:27.232Z,102184.05
2018-12-30T22:05:01.942Z,102185.77
2018-12-30T22:07:37.224Z,102180.55
2018-12-30T22:10:17.292Z,102182.27
2018-12-30T22:12:46.478Z,102186.63
2018-12-30T22:15:19.559Z,102183.13
2018-12-30T22:17:51.443Z,102181.84
2018-12-30T22:20:25.300Z,102181.41
2018-12-30T22:22:59.277Z,102176.19
2018-12-30T22:25:36.295Z,102177.48
2018-12-30T22:28:08.958Z,102170.95
2018-12-30T22:30:43.159Z,102176.19
2018-12-30T22:33:18.633Z,102173.55
2018-12-30T22:35:51.366Z,102181.80
2018-12-30T22:38:23.420Z,102173.53
2018-12-30T22:40:55.157Z,102175.28
2018-12-30T22:43:27.073Z,102174.39
2018-12-30T22:46:02.619Z,102171.80
2018-12-30T22:48:34.426Z,102176.13
2018-12-30T22:51:07.505Z,102171.34
2018-12-30T22:53:39.264Z,102178.75
2018-12-30T22:56:11.363Z,102177.86
2018-12-30T22:58:48.582Z,102175.72
2018-12-30T23:01:25.388Z,102171.34
2018-12-30T23:03:57.422Z,102173.08
2018-12-30T23:06:29.604Z,102171.77
2018-12-30T23:09:01.791Z,102160.45
2018-12-30T23:11:42.398Z,102157.83
2018-12-30T23:14:15.589Z,102143.48
2018-12-30T23:16:47.567Z,102136.95
2018-12-30T23:19:24.335Z,102130.88
2018-12-30T23:22:00.774Z,102126.53
2018-12-30T23:24:32.460Z,102130.00
2018-12-30T23:27:04.260Z,102122.14
2018-12-30T23:29:36.087Z,102126.50
2018-12-30T23:32:08.931Z,102133.86
2018-12-30T23:34:42.951Z,102120.81
2018-12-30T23:37:15.167Z,102112.11
2018-12-30T23:39:47.263Z,102120.38
2018-12-30T23:42:20.565Z,102123.87
2018-12-30T23:44:59.142Z,102133.42
2018-12-30T23:47:33.050Z,102143.43
2018-12-30T23:50:05.172Z,102138.66
2018-12-30T23:52:37.351Z,102147.80
2018-12-30T23:55:10.751Z,102150.41
2018-12-30T23:57:42.939Z,102155.64
